Montreal, Canada
Current Conditions -  °F | °C
As of 8:00 PM on Friday 24 Oct 2014 (Local Time) from CYHU Reporting Station
Clear Clear  
Wind Chill: 44°   Ceiling: Unl
Heat Index: 46°   Visibility: 9mi
Dew Point: 37°   Wind: 6mph
Humidity: 71%   Direction: 220°SW
Pressure: 29.82"   Gusts: NA
Location:  45.51°N, 73.55°W
Report Text: CYHU 250000Z AUTO 22005KT 9SM CLR 08/03 A2982 RMK SLP099
Loading
Personal Weather Stations






























Interactive Weather Map
Tropical Storm Tracking
New forecast layout! Learn more

10-Day Weather Forecast

Advertisements
Track Severe Weather on mobile